Time;durP1;ratioP1;P1;durP2;ratioP2;P2;SDS_P1;SDS_P2;PMS_P1;PMS_P2;Temp;Humidity;BMP_temperature;BMP_pressure;BME280_temperature;BME280_humidity;BME280_pressure;Samples;Min_cycle;Max_cycle;Signal;HPM_P1;HPM_P2
2022/05/22 00:01:15;;;;;;;20.87;13.07;;;;;;;19.78;54.11;99835.59;5043372;28;20292;-59
2022/05/22 00:03:45;;;;;;;25.20;12.40;;;;;;;19.93;53.80;99840.91;5043205;28;21207;-58
2022/05/22 00:06:16;;;;;;;21.73;11.40;;;;;;;19.99;52.68;99848.47;5042917;28;20288;-60
2022/05/22 00:08:48;;;;;;;23.97;11.37;;;;;;;20.12;52.32;99852.09;5040112;28;20288;-59
2022/05/22 00:11:19;;;;;;;21.20;11.20;;;;;;;20.24;52.11;99847.81;5042424;28;20291;-59
2022/05/22 00:13:49;;;;;;;22.17;12.47;;;;;;;20.32;51.98;99855.28;5043363;28;20576;-60
2022/05/22 00:19:08;;;;;;;18.13;11.13;;;;;;;20.20;52.11;99847.16;5041938;28;20280;-60
2022/05/22 00:21:39;;;;;;;24.30;10.80;;;;;;;20.28;51.66;99856.44;5042181;28;20296;-59
2022/05/22 00:24:13;;;;;;;25.23;10.80;;;;;;;20.21;51.16;99859.47;5042271;28;20344;-60
2022/05/22 00:26:43;;;;;;;57.80;13.13;;;;;;;20.18;51.52;99857.00;5043039;28;20645;-60
2022/05/22 00:29:14;;;;;;;59.47;13.60;;;;;;;20.23;51.81;99862.88;5043200;28;20318;-59
2022/05/22 00:31:46;;;;;;;19.93;10.50;;;;;;;20.20;50.69;99859.56;5043437;28;20283;-59
2022/05/22 00:34:17;;;;;;;22.03;10.80;;;;;;;19.68;50.72;99786.75;5043373;28;20330;-59
2022/05/22 00:36:47;;;;;;;40.57;11.87;;;;;;;20.02;50.22;99848.31;5042883;28;20323;-59
2022/05/22 00:39:19;;;;;;;17.97;10.60;;;;;;;19.99;50.57;99849.34;5043424;28;20282;-60
2022/05/22 00:41:52;;;;;;;19.50;10.53;;;;;;;19.88;50.37;99806.72;5043095;28;20306;-60
2022/05/22 00:44:24;;;;;;;31.07;10.77;;;;;;;19.97;50.42;99839.78;5042582;28;20349;-60
2022/05/22 00:46:54;;;;;;;18.87;10.93;;;;;;;20.10;50.42;99856.63;5043216;28;21346;-59
2022/05/22 00:49:28;;;;;;;23.80;10.67;;;;;;;20.10;49.90;99845.19;5041993;28;20287;-61
2022/05/22 00:52:03;;;;;;;21.10;10.97;;;;;;;20.19;50.63;99856.06;5041686;28;20577;-59
2022/05/22 00:54:44;;;;;;;23.67;10.87;;;;;;;20.23;50.04;99862.88;5042490;28;20284;-59
2022/05/22 00:57:18;;;;;;;23.70;11.00;;;;;;;20.43;50.08;99864.25;5041196;28;20296;-59
2022/05/22 00:59:52;;;;;;;22.77;10.90;;;;;;;20.48;49.85;99861.31;5041608;28;20589;-59
2022/05/22 01:02:23;;;;;;;42.00;13.50;;;;;;;20.47;50.15;99880.88;5040935;28;20299;-59
2022/05/22 01:04:53;;;;;;;25.73;11.97;;;;;;;20.43;49.81;99858.97;5041262;28;20299;-59
2022/05/22 01:07:24;;;;;;;24.50;10.70;;;;;;;20.49;48.77;99857.72;5042297;28;20284;-59
2022/05/22 01:09:56;;;;;;;27.27;10.87;;;;;;;20.58;49.62;99878.38;5041736;28;20288;-60
2022/05/22 01:12:27;;;;;;;31.63;12.07;;;;;;;20.74;49.89;99872.09;5042933;28;20290;-59
2022/05/22 01:14:57;;;;;;;26.27;11.50;;;;;;;20.79;49.78;99869.97;5042847;28;20296;-58
2022/05/22 01:17:28;;;;;;;38.30;11.67;;;;;;;20.70;48.69;99870.59;5042709;28;20346;-59
2022/05/22 01:20:00;;;;;;;23.23;10.33;;;;;;;20.54;49.22;99855.59;5042504;28;20296;-60
2022/05/22 01:22:32;;;;;;;21.77;10.67;;;;;;;20.63;48.05;99870.97;5043191;28;20316;-59
2022/05/22 01:25:04;;;;;;;18.20;10.43;;;;;;;20.60;47.85;99865.88;5046522;28;20295;-59
2022/05/22 01:27:34;;;;;;;84.20;13.33;;;;;;;20.50;48.99;99846.16;5046216;28;20283;-60
2022/05/22 01:30:15;;;;;;;16.87;9.90;;;;;;;20.11;48.65;99784.06;5046443;28;20288;-59
2022/05/22 01:32:48;;;;;;;21.37;10.70;;;;;;;20.79;49.03;99869.97;5045087;28;21331;-60
2022/05/22 01:35:20;;;;;;;23.27;10.67;;;;;;;20.76;47.45;99865.72;5045336;28;20321;-60
2022/05/22 01:37:53;;;;;;;19.63;10.80;;;;;;;20.63;48.42;99859.53;5045322;28;20284;-59
2022/05/22 01:40:24;;;;;;;23.87;10.77;;;;;;;20.33;48.46;99809.25;5046428;28;20290;-59
2022/05/22 01:42:55;;;;;;;20.67;11.23;;;;;;;20.45;49.22;99856.22;5045292;28;20311;-59
2022/05/22 01:45:28;;;;;;;24.37;10.97;;;;;;;20.22;48.80;99863.84;5046074;28;20307;-59
2022/05/22 01:47:59;;;;;;;22.57;11.07;;;;;;;19.83;50.13;99870.66;5045914;28;20346;-59
2022/05/22 01:50:30;;;;;;;19.30;11.37;;;;;;;19.48;51.21;99859.50;5046127;28;20277;-59
2022/05/22 01:53:02;;;;;;;23.10;11.40;;;;;;;19.34;52.24;99867.41;5045690;28;20283;-59
2022/05/22 01:55:33;;;;;;;21.50;11.53;;;;;;;18.86;52.27;99809.28;5045381;28;20280;-59
2022/05/22 01:58:06;;;;;;;21.33;12.20;;;;;;;19.23;52.46;99865.38;5045927;28;20312;-59
2022/05/22 02:00:38;;;;;;;19.77;12.10;;;;;;;19.29;53.23;99827.09;5045667;28;20609;-59
2022/05/22 02:03:09;;;;;;;22.13;11.33;;;;;;;20.00;51.43;99866.13;5043552;28;20304;-59
2022/05/22 02:05:39;;;;;;;21.87;11.27;;;;;;;20.30;50.30;99862.50;5043502;28;20295;-59
2022/05/22 02:08:22;;;;;;;21.23;10.97;;;;;;;20.51;50.32;99861.13;5045490;28;20330;-59
2022/05/22 02:10:55;;;;;;;18.73;10.87;;;;;;;20.80;49.92;99861.09;5045730;28;20306;-59
2022/05/22 02:13:28;;;;;;;21.37;10.63;;;;;;;20.94;48.55;99854.84;5045357;28;20284;-60
2022/05/22 02:15:59;;;;;;;45.77;11.47;;;;;;;20.83;48.42;99829.84;5045102;28;20279;-59
2022/05/22 02:18:29;;;;;;;18.60;10.23;;;;;;;21.02;47.74;99856.06;5043579;28;20298;-61
2022/05/22 02:21:00;;;;;;;19.30;10.50;;;;;;;21.01;47.28;99853.50;5043976;28;20543;-59
2022/05/22 02:23:33;;;;;;;32.03;11.27;;;;;;;21.03;47.82;99825.88;5044690;28;20319;-59
2022/05/22 02:26:09;;;;;;;27.87;10.77;;;;;;;21.29;47.19;99849.84;5045324;28;20287;-59
2022/05/22 02:28:40;;;;;;;16.20;10.33;;;;;;;21.21;47.29;99849.53;5044301;28;20334;-59
2022/05/22 02:31:10;;;;;;;20.07;10.20;;;;;;;21.21;47.39;99849.53;5043356;28;20291;-59
2022/05/22 02:33:41;;;;;;;22.97;10.30;;;;;;;21.07;47.33;99848.66;5043045;28;20351;-60
2022/05/22 02:36:14;;;;;;;19.83;9.63;;;;;;;21.03;47.24;99844.47;5042814;28;20342;-60
2022/05/22 02:38:46;;;;;;;14.67;9.77;;;;;;;21.14;47.53;99837.59;5044916;28;20476;-60
2022/05/22 02:41:17;;;;;;;25.00;9.67;;;;;;;21.31;46.53;99847.94;5043620;28;20279;-60
2022/05/22 02:43:48;;;;;;;15.07;9.93;;;;;;;21.35;46.95;99836.16;5044717;28;20311;-60
2022/05/22 02:46:21;;;;;;;10.97;8.83;;;;;;;21.40;46.20;99834.06;5045173;28;20290;-59
2022/05/22 02:48:52;;;;;;;22.43;9.30;;;;;;;21.48;45.94;99831.72;5043960;28;20280;-60
2022/05/22 02:51:23;;;;;;;20.90;9.03;;;;;;;21.50;45.76;99829.81;5043898;28;20369;-59
2022/05/22 02:53:56;;;;;;;25.57;9.27;;;;;;;21.52;45.29;99833.22;5043998;28;20432;-59
2022/05/22 02:56:27;;;;;;;23.50;8.33;;;;;;;21.53;45.27;99821.63;5043711;28;20292;-61
2022/05/22 02:58:58;;;;;;;20.70;8.63;;;;;;;21.77;45.12;99831.53;5043640;28;20279;-59
2022/05/22 03:01:28;;;;;;;19.30;8.63;;;;;;;21.85;44.80;99823.88;5044707;28;20292;-59
2022/05/22 03:03:59;;;;;;;16.50;8.73;;;;;;;22.01;44.21;99838.75;5044386;28;20318;-59
2022/05/22 03:09:19;;;;;;;17.03;9.23;;;;;;;22.10;43.38;99808.84;5042750;28;20291;-60
2022/05/22 03:11:50;;;;;;;14.47;8.37;;;;;;;22.13;43.37;99828.06;5042770;28;20346;-59
2022/05/22 03:14:20;;;;;;;20.67;9.17;;;;;;;22.20;43.59;99823.19;5042844;28;20832;-60
2022/05/22 03:16:51;;;;;;;13.90;8.90;;;;;;;22.22;44.11;99826.59;5043771;28;20733;-60
2022/05/22 03:19:22;;;;;;;23.77;7.80;;;;;;;22.26;43.08;99813.91;5044101;28;20367;-60
2022/05/22 03:21:52;;;;;;;18.67;9.23;;;;;;;22.25;42.61;99804.25;5044671;28;20359;-60
2022/05/22 03:24:24;;;;;;;19.73;8.80;;;;;;;22.27;42.92;99805.84;5042360;28;20362;-59
2022/05/22 03:26:55;;;;;;;20.67;9.50;;;;;;;22.41;43.58;99810.13;5043343;28;20351;-59
2022/05/22 03:29:26;;;;;;;23.53;8.80;;;;;;;22.58;42.63;99811.56;5043395;28;20339;-60
2022/05/22 03:31:56;;;;;;;13.50;7.97;;;;;;;22.54;41.83;99788.78;5039817;28;20295;-60
2022/05/22 03:34:27;;;;;;;17.63;7.73;;;;;;;22.67;41.95;99805.59;5043465;28;20291;-59
2022/05/22 03:36:58;;;;;;;15.70;7.53;;;;;;;22.80;42.06;99810.84;5043957;28;20276;-59
2022/05/22 03:39:31;;;;;;;22.60;8.93;;;;;;;22.82;41.25;99808.94;5042950;28;20303;-59
2022/05/22 03:42:04;;;;;;;22.13;8.20;;;;;;;22.75;40.83;99803.19;5043309;28;20383;-59
2022/05/22 03:44:35;;;;;;;18.10;8.93;;;;;;;22.79;40.96;99803.84;5044079;28;20319;-61
2022/05/22 03:47:07;;;;;;;13.80;7.57;;;;;;;22.91;40.62;99807.38;5043478;28;20061;-59
2022/05/22 03:49:38;;;;;;;18.60;7.43;;;;;;;23.04;40.45;99805.53;5040992;28;20363;-59
2022/05/22 03:52:09;;;;;;;21.93;8.00;;;;;;;23.01;39.47;99776.44;5043581;28;20067;-59
2022/05/22 03:54:41;;;;;;;15.07;6.87;;;;;;;23.01;39.92;99781.75;5043336;28;20067;-59
2022/05/22 03:57:12;;;;;;;15.17;7.33;;;;;;;22.98;39.51;99784.66;5042044;28;20052;-59
2022/05/22 03:59:43;;;;;;;18.80;8.20;;;;;;;23.15;40.86;99778.91;5042265;28;20142;-58
2022/05/22 04:02:13;;;;;;;11.83;7.63;;;;;;;23.23;38.97;99779.16;5042981;28;20049;-58
2022/05/22 04:04:44;;;;;;;14.30;7.20;;;;;;;23.21;40.17;99773.13;5043555;28;20239;-60
2022/05/22 04:07:15;;;;;;;17.03;7.33;;;;;;;23.23;39.13;99773.81;5041152;28;20060;-59
2022/05/22 04:09:47;;;;;;;17.50;8.17;;;;;;;23.22;39.58;99768.63;5042019;28;20287;-59
2022/05/22 04:12:18;;;;;;;17.53;7.97;;;;;;;23.24;39.58;99778.22;5042894;28;20068;-59
2022/05/22 04:14:48;;;;;;;18.30;7.73;;;;;;;23.20;39.06;99766.06;5042602;28;20347;-59
2022/05/22 04:17:21;;;;;;;13.03;7.40;;;;;;;23.22;38.18;99774.81;5042174;28;20053;-58
2022/05/22 04:19:51;;;;;;;16.10;7.50;;;;;;;23.29;38.82;99763.66;5042116;28;20060;-58
2022/05/22 04:22:22;;;;;;;14.77;7.10;;;;;;;23.30;39.10;99768.88;5040958;28;20049;-58
2022/05/22 04:25:11;;;;;;;17.80;8.20;;;;;;;23.42;38.77;99762.59;5041806;28;20372;-59
2022/05/22 04:28:00;;;;;;;16.20;7.37;;;;;;;23.51;39.41;99758.34;5041998;28;20056;-58
2022/05/22 04:30:30;;;;;;;20.97;7.63;;;;;;;23.60;39.66;99757.63;5042437;28;20107;-60
2022/05/22 04:33:01;;;;;;;12.57;7.40;;;;;;;23.74;39.22;99753.94;5042710;28;20053;-58
2022/05/22 04:35:31;;;;;;;13.70;7.60;;;;;;;23.85;38.66;99755.72;5043202;28;20386;-58
2022/05/22 04:38:03;;;;;;;10.87;7.07;;;;;;;23.78;38.08;99754.53;5041262;28;20107;-59
2022/05/22 04:40:36;;;;;;;17.03;6.83;;;;;;;23.79;38.98;99750.88;5043216;28;20057;-59
2022/05/22 04:43:06;;;;;;;14.53;6.93;;;;;;;23.83;38.87;99747.84;5042327;28;20064;-60
2022/05/22 04:45:40;;;;;;;15.43;7.47;;;;;;;23.85;38.18;99739.72;5041894;28;20343;-58
2022/05/22 04:48:11;;;;;;;15.23;6.70;;;;;;;23.73;37.84;99744.22;5041798;28;20040;-59
2022/05/22 04:50:41;;;;;;;14.07;6.47;;;;;;;23.64;37.27;99735.09;5042923;28;20057;-58
2022/05/22 04:53:12;;;;;;;14.30;7.27;;;;;;;23.56;37.75;99732.16;5042925;28;20263;-57
2022/05/22 04:55:44;;;;;;;15.70;7.13;;;;;;;23.68;37.92;99733.88;5043216;28;20046;-57
2022/05/22 04:58:16;;;;;;;22.03;7.17;;;;;;;23.55;36.19;99727.81;5043820;28;20053;-58
2022/05/22 05:00:47;;;;;;;27.17;9.60;;;;;;;23.57;37.35;99736.56;5046230;28;20118;-58
2022/05/22 05:03:18;;;;;;;14.83;7.10;;;;;;;23.50;37.45;99735.34;5046137;28;20060;-58
2022/05/22 05:05:58;;;;;;;16.33;7.53;;;;;;;23.54;38.58;99731.47;5044689;28;20053;-58
2022/05/22 05:08:29;;;;;;;9.80;6.70;;;;;;;23.27;37.40;99699.81;5046437;28;20061;-59
2022/05/22 05:11:03;;;;;;;17.73;7.17;;;;;;;23.19;38.27;99735.06;5044725;28;20065;-59
2022/05/22 05:13:33;;;;;;;13.77;7.30;;;;;;;23.01;38.21;99728.47;5045710;28;20044;-58
2022/05/22 05:16:06;;;;;;;17.93;7.43;;;;;;;23.02;39.00;99730.19;5045611;28;20324;-59
2022/05/22 05:18:38;;;;;;;35.33;8.20;;;;;;;23.04;39.47;99712.28;5046330;28;20091;-59
2022/05/22 05:21:11;;;;;;;13.63;7.23;;;;;;;23.20;38.16;99728.75;5046491;28;20049;-59
2022/05/22 05:23:42;;;;;;;14.17;6.90;;;;;;;23.14;38.41;99728.38;5046714;28;20404;-59
2022/05/22 05:26:14;;;;;;;18.17;6.87;;;;;;;23.12;38.89;99720.53;5045034;28;20061;-59
2022/05/22 05:28:44;;;;;;;38.93;8.93;;;;;;;23.22;39.54;99732.16;5045737;28;20053;-59
2022/05/22 05:31:15;;;;;;;42.77;8.40;;;;;;;23.27;39.15;99738.97;5046185;28;20056;-59
2022/05/22 05:33:46;;;;;;;37.30;7.93;;;;;;;23.18;38.51;99737.84;5046035;28;20336;-58
2022/05/22 05:36:16;;;;;;;21.20;6.77;;;;;;;23.14;38.66;99739.91;5045384;28;20092;-59
2022/05/22 05:38:47;;;;;;;25.87;6.87;;;;;;;23.09;38.46;99731.41;5045491;28;20061;-59
2022/05/22 05:41:28;;;;;;;16.57;6.83;;;;;;;23.17;38.79;99729.00;5045434;28;20067;-60
2022/05/22 05:44:01;;;;;;;16.83;7.60;;;;;;;23.37;39.15;99726.63;5045998;28;20075;-59
2022/05/22 05:46:32;;;;;;;21.43;7.33;;;;;;;23.42;38.60;99727.94;5045544;28;20210;-59
2022/05/22 05:49:02;;;;;;;18.97;6.80;;;;;;;23.39;38.79;99727.34;5045048;28;20052;-59
2022/05/22 05:51:35;;;;;;;13.80;7.03;;;;;;;23.34;38.96;99718.84;5045747;28;20053;-59
2022/05/22 05:54:07;;;;;;;15.43;6.90;;;;;;;23.33;39.07;99717.16;5046012;28;20115;-58
2022/05/22 05:56:41;;;;;;;14.40;6.60;;;;;;;23.28;38.74;99725.50;5045754;28;20272;-59
2022/05/22 05:59:12;;;;;;;17.33;7.53;;;;;;;23.34;38.92;99730.38;5045515;28;20084;-59
2022/05/22 06:01:42;;;;;;;96.57;11.83;;;;;;;23.34;38.11;99713.50;5045432;28;20041;-59
2022/05/22 06:04:13;;;;;;;19.67;7.00;;;;;;;23.37;38.68;99718.63;5045654;28;20072;-59
2022/05/22 06:06:44;;;;;;;40.10;7.07;;;;;;;23.34;37.87;99716.16;5045193;28;20363;-60
2022/05/22 06:09:15;;;;;;;15.90;6.20;;;;;;;23.29;38.60;99737.00;5043447;28;20310;-58
2022/05/22 06:11:47;;;;;;;13.80;7.23;;;;;;;23.29;38.17;99723.66;5045183;28;20061;-59
2022/05/22 06:14:18;;;;;;;14.20;6.50;;;;;;;23.21;37.91;99735.81;5044922;28;20061;-59
2022/05/22 06:16:50;;;;;;;16.97;10.27;;;;;;;23.22;38.12;99733.97;5044965;28;20295;-58
2022/05/22 06:19:53;;;;;;;16.30;8.33;;;;;;;23.23;37.91;99725.84;5044745;28;20064;-58
2022/05/22 06:22:15;;;;;;;14.07;8.30;;;;;;;23.15;38.10;99725.59;5045236;28;20053;-58
2022/05/22 06:24:46;;;;;;;23.27;7.60;;;;;;;23.13;37.89;99722.19;5044193;28;20240;-58
2022/05/22 06:27:18;;;;;;;45.57;19.90;;;;;;;23.06;38.38;99702.31;5044923;28;20278;-58
2022/05/22 06:29:49;;;;;;;25.17;18.90;;;;;;;23.23;38.35;99723.19;5044293;28;20076;-58
2022/05/22 06:32:21;;;;;;;26.10;16.60;;;;;;;23.28;38.45;99714.00;5045469;28;20049;-58
2022/05/22 06:34:52;;;;;;;16.97;8.77;;;;;;;23.36;39.05;99716.91;5044852;28;20057;-59
2022/05/22 06:37:24;;;;;;;17.80;7.23;;;;;;;23.45;39.09;99724.19;5045098;28;20065;-60
2022/05/22 06:39:54;;;;;;;12.73;6.83;;;;;;;23.32;38.95;99689.66;5045114;28;20057;-59
2022/05/22 06:42:28;;;;;;;12.93;7.23;;;;;;;23.48;37.70;99726.59;5044134;28;20060;-59
2022/05/22 06:45:01;;;;;;;14.07;6.93;;;;;;;23.32;37.89;99718.13;5044233;28;20052;-59
2022/05/22 06:47:34;;;;;;;16.53;7.23;;;;;;;23.27;38.26;99733.63;5045020;28;20339;-58
2022/05/22 06:50:07;;;;;;;24.43;8.03;;;;;;;23.04;38.20;99712.28;5044649;28;20046;-59
2022/05/22 06:52:38;;;;;;;24.10;6.90;;;;;;;23.09;38.36;99727.88;5044613;28;20068;-58
2022/05/22 06:55:10;;;;;;;19.40;11.87;;;;;;;23.03;38.69;99734.53;5043810;28;20048;-58
2022/05/22 06:57:43;;;;;;;21.23;13.90;;;;;;;23.01;39.00;99733.81;5043553;28;20264;-58
2022/05/22 07:00:15;;;;;;;16.70;7.97;;;;;;;23.04;39.12;99734.44;5044801;28;20049;-58
2022/05/22 07:02:46;;;;;;;12.87;7.30;;;;;;;23.07;39.00;99738.69;5044906;28;20103;-58
2022/05/22 07:05:35;;;;;;;15.87;11.43;;;;;;;23.09;39.22;99739.41;5044162;28;20464;-58
2022/05/22 07:08:06;;;;;;;16.37;8.00;;;;;;;23.00;38.59;99726.78;5043469;28;20053;-57
2022/05/22 07:13:25;;;;;;;14.17;7.53;;;;;;;22.85;39.28;99739.44;5044369;28;20049;-57
2022/05/22 07:16:01;;;;;;;18.77;7.47;;;;;;;22.87;39.39;99734.00;5044095;28;20049;-57
2022/05/22 07:18:51;;;;;;;16.23;8.50;;;;;;;22.77;39.20;99742.69;5044234;28;20037;-57
2022/05/22 07:21:22;;;;;;;41.73;12.43;;;;;;;22.61;39.25;99728.81;5043749;28;20057;-58
2022/05/22 07:23:52;;;;;;;24.27;14.80;;;;;;;22.65;39.90;99738.28;5043567;28;20061;-57
2022/05/22 07:26:25;;;;;;;28.37;13.43;;;;;;;22.66;40.19;99737.28;5044548;28;20358;-58
2022/05/22 07:28:58;;;;;;;17.00;8.23;;;;;;;22.70;40.24;99736.09;5043568;28;20072;-59
2022/05/22 07:31:29;;;;;;;17.73;8.07;;;;;;;22.68;40.69;99735.38;5044084;28;20437;-59
2022/05/22 07:34:00;;;;;;;67.10;11.63;;;;;;;22.20;40.56;99647.56;5044029;28;20353;-58
2022/05/22 07:36:31;;;;;;;14.87;7.83;;;;;;;22.68;40.49;99738.03;5044027;28;20323;-58
2022/05/22 07:39:02;;;;;;;19.73;7.90;;;;;;;22.62;40.07;99733.19;5043951;28;20198;-58
2022/05/22 07:41:33;;;;;;;14.63;7.43;;;;;;;22.53;40.02;99745.34;5043010;28;20134;-57
2022/05/22 07:44:05;;;;;;;11.47;7.20;;;;;;;22.46;40.29;99735.28;5043983;28;20208;-58
2022/05/22 07:46:36;;;;;;;20.90;8.07;;;;;;;22.40;41.04;99739.25;5042311;28;20685;-57
2022/05/22 07:49:06;;;;;;;27.53;8.50;;;;;;;22.44;41.09;99746.06;5042499;28;20407;-59
2022/05/22 07:51:37;;;;;;;15.07;7.97;;;;;;;22.24;40.78;99712.06;5043946;28;20478;-59
2022/05/22 07:54:08;;;;;;;13.43;7.77;;;;;;;22.22;40.79;99746.78;5043162;28;20283;-60
2022/05/22 07:56:38;;;;;;;21.57;8.20;;;;;;;22.07;40.54;99748.72;5043622;28;20311;-59
2022/05/22 07:59:10;;;;;;;16.70;8.90;;;;;;;21.90;41.04;99747.25;5041662;28;20348;-59
2022/05/22 08:01:41;;;;;;;21.47;12.70;;;;;;;21.79;41.07;99744.53;5043676;28;20287;-58
2022/05/22 08:04:12;;;;;;;21.00;8.70;;;;;;;21.80;41.64;99751.53;5042531;28;20322;-58
2022/05/22 08:06:43;;;;;;;20.40;8.23;;;;;;;21.71;42.26;99752.19;5043137;28;20304;-59
2022/05/22 08:09:13;;;;;;;15.43;10.17;;;;;;;21.69;43.37;99764.72;5043364;28;20352;-60
2022/05/22 08:11:44;;;;;;;61.87;11.67;;;;;;;21.70;43.89;99755.81;5043664;28;20280;-59
2022/05/22 08:14:16;;;;;;;19.23;9.27;;;;;;;21.64;43.94;99766.84;5043552;28;20300;-59
2022/05/22 08:16:47;;;;;;;21.97;11.33;;;;;;;21.52;44.01;99758.81;5043042;28;20359;-58
2022/05/22 08:19:18;;;;;;;27.10;13.20;;;;;;;21.50;44.25;99776.66;5043173;28;20287;-57
2022/05/22 08:21:48;;;;;;;15.87;10.40;;;;;;;21.39;44.38;99776.56;5043296;28;20621;-58
2022/05/22 08:24:19;;;;;;;17.97;9.00;;;;;;;21.32;44.62;99783.22;5042366;28;20670;-59
2022/05/22 08:26:50;;;;;;;16.83;9.30;;;;;;;21.16;44.75;99782.56;5043657;28;20945;-58
2022/05/22 08:29:22;;;;;;;19.27;9.17;;;;;;;21.02;45.23;99780.84;5042634;28;20288;-60
2022/05/22 08:31:53;;;;;;;19.83;10.07;;;;;;;20.97;45.08;99794.44;5043108;28;20431;-58
2022/05/22 08:34:23;;;;;;;23.00;10.87;;;;;;;20.87;45.20;99806.63;5043664;28;20295;-58
2022/05/22 08:36:54;;;;;;;62.87;12.80;;;;;;;20.77;45.27;99808.19;5043716;28;20287;-60
2022/05/22 08:39:25;;;;;;;20.33;11.77;;;;;;;20.62;45.27;99815.34;5042295;28;20334;-58
2022/05/22 08:42:00;;;;;;;21.47;11.17;;;;;;;20.45;45.97;99824.38;5043304;28;20283;-58
2022/05/22 08:44:34;;;;;;;17.83;10.10;;;;;;;20.32;46.37;99829.63;5043105;28;20291;-58
2022/05/22 08:47:13;;;;;;;30.20;21.17;;;;;;;20.13;46.42;99824.59;5042044;28;20461;-57
2022/05/22 08:49:49;;;;;;;31.27;13.80;;;;;;;20.01;46.23;99825.38;5042102;28;20297;-57
2022/05/22 08:52:27;;;;;;;28.00;11.60;;;;;;;19.78;46.72;99826.81;5042093;28;20064;-56
2022/05/22 08:55:10;;;;;;;23.10;14.10;;;;;;;19.70;47.15;99843.19;5042740;28;20290;-57
2022/05/22 09:00:58;;;;;;;37.30;13.93;;;;;;;19.34;47.76;99836.47;5042642;28;20272;-58
2022/05/22 09:03:34;;;;;;;30.38;14.35;;;;;;;19.22;48.14;99842.50;5042828;28;20311;-58
2022/05/22 09:06:07;;;;;;;31.67;14.23;;;;;;;18.96;48.19;99810.44;5042055;28;20216;-57
2022/05/22 09:08:45;;;;;;;51.67;15.67;;;;;;;18.87;48.58;99839.25;5041180;28;20532;-58
2022/05/22 09:11:19;;;;;;;20.77;13.70;;;;;;;18.82;48.82;99855.41;5042273;28;20311;-58
2022/05/22 09:13:57;;;;;;;36.57;18.57;;;;;;;18.67;49.34;99850.94;5041015;28;20367;-58
2022/05/22 09:16:31;;;;;;;32.83;20.23;;;;;;;18.59;49.45;99854.00;5042149;28;20288;-58
2022/05/22 09:19:09;;;;;;;22.97;15.00;;;;;;;18.42;49.75;99849.69;5042461;28;20474;-59
2022/05/22 09:21:51;;;;;;;19.53;12.70;;;;;;;18.39;50.09;99857.75;5042298;28;20339;-58
2022/05/22 09:24:31;;;;;;;22.87;14.17;;;;;;;18.27;50.46;99869.00;5041318;28;20358;-59
2022/05/22 09:27:10;;;;;;;44.60;23.17;;;;;;;18.11;51.06;99872.47;5040857;28;20538;-59
2022/05/22 09:30:01;;;;;;;54.38;31.92;;;;;;;17.94;51.55;99867.25;5042262;28;20291;-58
2022/05/22 09:32:54;;;;;;;25.17;13.23;;;;;;;17.48;51.95;99827.38;5042493;28;20068;-59
2022/05/22 09:35:31;;;;;;;19.30;11.30;;;;;;;17.79;51.94;99873.31;5042854;28;20284;-57
2022/05/22 09:38:16;;;;;;;24.67;12.70;;;;;;;17.68;52.11;99887.94;5042176;28;20548;-59
2022/05/22 09:40:49;;;;;;;43.40;16.47;;;;;;;17.52;52.57;99881.72;5041522;28;20284;-59
2022/05/22 09:43:39;;;;;;;27.33;12.53;;;;;;;17.28;52.69;99888.28;5042118;28;20279;-59
2022/05/22 09:46:30;;;;;;;20.33;12.20;;;;;;;17.14;53.14;99887.16;5045560;28;20648;-59
2022/05/22 09:49:20;;;;;;;21.80;14.00;;;;;;;16.94;53.37;99887.28;5046461;28;20292;-59
2022/05/22 09:51:58;;;;;;;17.87;11.73;;;;;;;16.73;53.68;99897.91;5045417;28;20314;-59
2022/05/22 09:54:45;;;;;;;35.07;13.63;;;;;;;16.58;54.10;99899.50;5046110;28;20312;-59
2022/05/22 09:57:52;;;;;;;17.67;13.20;;;;;;;16.42;54.42;99898.47;5045527;28;20279;-59
2022/05/22 10:00:29;;;;;;;28.53;14.10;;;;;;;16.29;54.73;99892.91;5046327;28;20308;-59
2022/05/22 10:03:07;;;;;;;45.40;23.50;;;;;;;16.23;55.59;99887.94;5045421;28;20478;-58
2022/05/22 10:05:49;;;;;;;29.37;19.03;;;;;;;16.13;56.08;99891.94;5045634;28;20280;-61
2022/05/22 10:08:31;;;;;;;51.37;19.90;;;;;;;16.00;56.43;99898.66;5045671;28;20315;-57
2022/05/22 10:11:10;;;;;;;28.30;18.73;;;;;;;15.84;56.76;99886.16;5045184;28;20290;-58
2022/05/22 10:13:58;;;;;;;35.88;24.42;;;;;;;15.82;57.35;99895.91;5044272;28;20382;-57
2022/05/22 10:16:39;;;;;;;44.73;28.67;;;;;;;15.86;57.50;99905.41;5044908;28;20107;-57
2022/05/22 10:19:24;;;;;;;68.70;24.87;;;;;;;15.82;57.58;99902.97;5045952;28;20315;-58
2022/05/22 10:22:02;;;;;;;39.27;22.50;;;;;;;15.73;57.80;99909.50;5044787;28;20291;-58
2022/05/22 10:24:47;;;;;;;54.22;36.65;;;;;;;15.67;57.77;99901.81;5045045;28;20291;-58
2022/05/22 10:27:45;;;;;;;42.70;25.67;;;;;;;15.49;57.63;99899.03;5044877;28;20406;-60
2022/05/22 10:30:20;;;;;;;74.50;45.95;;;;;;;15.58;57.62;99915.41;5045466;28;20386;-59
2022/05/22 10:32:57;;;;;;;117.77;75.73;;;;;;;15.58;57.83;99915.41;5045456;28;20306;-59
2022/05/22 10:35:33;;;;;;;121.00;77.73;;;;;;;15.60;58.04;99913.53;5043925;28;20376;-59
2022/05/22 10:38:10;;;;;;;101.20;67.40;;;;;;;15.58;57.65;99918.88;5044494;28;20276;-59
2022/05/22 10:43:38;;;;;;;43.73;16.50;;;;;;;15.41;58.38;99924.00;5043451;28;20320;-58
2022/05/22 10:46:09;;;;;;;25.63;13.90;;;;;;;15.28;58.59;99923.66;5045269;28;20267;-59
2022/05/22 10:48:50;;;;;;;28.50;14.87;;;;;;;15.13;58.84;99924.28;5045167;28;20304;-59
2022/05/22 10:51:25;;;;;;;26.97;15.40;;;;;;;14.88;59.41;99935.78;5044876;28;20292;-59
2022/05/22 10:53:59;;;;;;;26.77;14.17;;;;;;;14.12;60.98;99932.44;5044798;28;20358;-59
2022/05/22 10:56:32;;;;;;;26.83;14.13;;;;;;;13.53;62.61;99940.69;5043574;28;20935;-58
2022/05/22 10:59:05;;;;;;;26.30;13.03;;;;;;;13.11;63.94;99935.88;5044619;28;20334;-59
2022/05/22 11:01:38;;;;;;;33.75;11.02;;;;;;;12.99;64.14;99949.38;5043749;28;20285;-58
2022/05/22 11:04:10;;;;;;;16.30;9.30;;;;;;;12.40;64.41;99950.25;5044573;28;20057;-58
2022/05/22 11:06:54;;;;;;;16.60;7.65;;;;;;;11.91;64.60;99952.50;5043362;28;20053;-62
2022/05/22 11:09:28;;;;;;;16.90;7.70;;;;;;;11.65;65.23;99966.22;5044821;28;20471;-58
2022/05/22 11:12:06;;;;;;;9.93;7.63;;;;;;;10.91;65.52;99893.97;5044629;28;20091;-58
2022/05/22 11:14:37;;;;;;;18.02;7.93;;;;;;;11.09;66.29;99966.72;5044739;28;20053;-58
2022/05/22 11:17:15;;;;;;;27.65;9.35;;;;;;;11.09;66.67;99966.72;5043915;28;20083;-57
2022/05/22 11:19:48;;;;;;;18.33;8.95;;;;;;;11.17;66.49;99970.00;5043472;28;20056;-58
2022/05/22 11:22:31;;;;;;;12.27;7.70;;;;;;;11.05;66.66;99975.50;5044667;28;20053;-58
2022/05/22 11:25:18;;;;;;;16.30;7.70;;;;;;;10.94;66.77;99967.94;5043087;28;20057;-57
2022/05/22 11:28:04;;;;;;;13.75;7.40;;;;;;;10.88;66.27;99968.06;5043816;28;20063;-57
2022/05/22 11:30:47;;;;;;;12.05;8.18;;;;;;;10.85;67.11;99972.50;5043621;28;20053;-57
2022/05/22 11:33:40;;;;;;;13.85;8.60;;;;;;;10.93;66.63;99981.03;5043977;28;20059;-57
2022/05/22 11:36:21;;;;;;;30.38;9.80;;;;;;;10.49;66.76;99938.44;5044136;28;20053;-57
2022/05/22 11:39:11;;;;;;;25.38;10.40;;;;;;;10.61;67.21;99985.22;5044507;28;20053;-57
2022/05/22 11:41:49;;;;;;;24.83;9.35;;;;;;;10.40;67.43;99959.53;5043432;28;20087;-58
2022/05/22 11:44:46;;;;;;;22.95;9.38;;;;;;;10.12;68.17;99986.16;5044159;28;20049;-58
2022/05/22 11:47:32;;;;;;;13.88;8.20;;;;;;;9.71;69.01;99985.16;5034160;28;20148;-59
2022/05/22 11:50:16;;;;;;;16.67;8.38;;;;;;;9.40;69.93;99980.44;5042659;28;20064;-58
2022/05/22 11:52:58;;;;;;;17.45;8.63;;;;;;;9.27;70.55;99995.41;5041073;28;20061;-58
2022/05/22 11:55:44;;;;;;;12.93;8.70;;;;;;;9.04;71.00;99985.34;5043699;28;20366;-58
2022/05/22 11:58:23;;;;;;;13.38;8.60;;;;;;;8.81;71.58;100000.41;5041793;28;20771;-58
2022/05/22 12:01:05;;;;;;;11.45;8.85;;;;;;;8.54;72.42;99986.88;5043011;28;20049;-59
2022/05/22 12:04:06;;;;;;;13.38;8.60;;;;;;;8.39;73.10;100002.66;5043297;28;20060;-59
2022/05/22 12:07:00;;;;;;;14.80;8.90;;;;;;;8.18;73.28;99978.56;5043554;28;20103;-57
2022/05/22 12:09:48;;;;;;;11.07;8.90;;;;;;;8.10;73.88;99969.16;5042659;28;20060;-58